sensor_id;sensor_type;location;lat;lon;timestamp;pressure;altitude;pressure_sealevel;temperature;humidity
15870;BME280;8034;51.442;-0.522;2022-07-24T20:02:03;100993.86;;;22.56;100.00
15870;BME280;8034;51.442;-0.522;2022-07-24T20:07:50;100987.50;;;22.37;100.00
15870;BME280;8034;51.442;-0.522;2022-07-24T20:13:37;101005.09;;;22.31;100.00
15870;BME280;8034;51.442;-0.522;2022-07-24T20:19:23;101013.77;;;22.16;100.00
15870;BME280;8034;51.442;-0.522;2022-07-24T20:25:09;101010.81;;;22.12;100.00
15870;BME280;8034;51.442;-0.522;2022-07-24T20:30:53;101022.95;;;22.13;100.00
15870;BME280;8034;51.442;-0.522;2022-07-24T20:36:38;101018.42;;;21.90;100.00
15870;BME280;8034;51.442;-0.522;2022-07-24T20:42:23;101027.45;;;22.08;100.00
15870;BME280;8034;51.442;-0.522;2022-07-24T20:48:08;101021.01;;;21.89;100.00
15870;BME280;8034;51.442;-0.522;2022-07-24T20:53:53;101015.69;;;22.00;100.00
15870;BME280;8034;51.442;-0.522;2022-07-24T20:59:40;101004.48;;;21.91;100.00
15870;BME280;8034;51.442;-0.522;2022-07-24T21:05:26;101001.20;;;21.95;100.00
15870;BME280;8034;51.442;-0.522;2022-07-24T21:11:12;100985.78;;;21.99;100.00
15870;BME280;8034;51.442;-0.522;2022-07-24T21:16:59;100984.62;;;21.82;100.00
15870;BME280;8034;51.442;-0.522;2022-07-24T21:22:45;100962.20;;;21.83;100.00
15870;BME280;8034;51.442;-0.522;2022-07-24T21:28:29;100961.87;;;21.78;100.00
15870;BME280;8034;51.442;-0.522;2022-07-24T21:34:17;100971.59;;;21.65;100.00
15870;BME280;8034;51.442;-0.522;2022-07-24T21:40:03;100965.83;;;21.55;100.00
15870;BME280;8034;51.442;-0.522;2022-07-24T21:45:51;100974.92;;;21.43;100.00
15870;BME280;8034;51.442;-0.522;2022-07-24T21:51:36;100966.92;;;21.39;100.00
15870;BME280;8034;51.442;-0.522;2022-07-24T21:57:22;100967.98;;;21.34;100.00
15870;BME280;8034;51.442;-0.522;2022-07-24T22:03:09;100969.41;;;21.16;100.00
15870;BME280;8034;51.442;-0.522;2022-07-24T22:08:55;100964.45;;;21.19;100.00
15870;BME280;8034;51.442;-0.522;2022-07-24T22:14:40;100956.19;;;21.02;100.00
15870;BME280;8034;51.442;-0.522;2022-07-24T22:20:25;100952.77;;;21.02;100.00
15870;BME280;8034;51.442;-0.522;2022-07-24T22:26:10;100956.44;;;21.09;100.00
15870;BME280;8034;51.442;-0.522;2022-07-24T22:31:57;100956.56;;;21.00;100.00
15870;BME280;8034;51.442;-0.522;2022-07-24T22:37:45;100953.48;;;21.11;100.00
15870;BME280;8034;51.442;-0.522;2022-07-24T22:43:32;100955.04;;;21.15;100.00
15870;BME280;8034;51.442;-0.522;2022-07-24T22:49:18;100953.28;;;21.16;100.00
15870;BME280;8034;51.442;-0.522;2022-07-24T22:55:07;100948.81;;;21.21;100.00
15870;BME280;8034;51.442;-0.522;2022-07-24T23:00:53;100942.67;;;21.19;100.00
15870;BME280;8034;51.442;-0.522;2022-07-24T23:06:41;100955.50;;;21.05;100.00
15870;BME280;8034;51.442;-0.522;2022-07-24T23:12:26;100957.03;;;21.14;100.00
15870;BME280;8034;51.442;-0.522;2022-07-24T23:18:12;100943.50;;;21.14;100.00
15870;BME280;8034;51.442;-0.522;2022-07-24T23:23:57;100935.16;;;21.17;100.00
15870;BME280;8034;51.442;-0.522;2022-07-24T23:29:41;100926.90;;;21.18;100.00
15870;BME280;8034;51.442;-0.522;2022-07-24T23:35:25;100924.07;;;21.18;100.00
15870;BME280;8034;51.442;-0.522;2022-07-24T23:41:10;100932.79;;;21.19;100.00
15870;BME280;8034;51.442;-0.522;2022-07-24T23:46:56;100924.66;;;21.24;100.00
15870;BME280;8034;51.442;-0.522;2022-07-24T23:52:41;100909.09;;;21.36;100.00
15870;BME280;8034;51.442;-0.522;2022-07-24T23:58:26;100892.20;;;21.18;100.00
